sensor_id;sensor_type;location;lat;lon;timestamp;P1;durP1;ratioP1;P2;durP2;ratioP2
33593;SDS011;19920;52.242;20.940;2023-05-07T00:00:25;6.38;;;3.80;;
33593;SDS011;19920;52.242;20.940;2023-05-07T00:02:51;5.20;;;2.97;;
33593;SDS011;19920;52.242;20.940;2023-05-07T00:05:17;5.65;;;3.42;;
33593;SDS011;19920;52.242;20.940;2023-05-07T00:07:42;5.70;;;3.00;;
33593;SDS011;19920;52.242;20.940;2023-05-07T00:10:09;4.88;;;3.53;;
33593;SDS011;19920;52.242;20.940;2023-05-07T00:12:37;3.83;;;3.17;;
33593;SDS011;19920;52.242;20.940;2023-05-07T00:15:03;4.65;;;3.38;;
33593;SDS011;19920;52.242;20.940;2023-05-07T00:17:29;5.32;;;3.50;;
33593;SDS011;19920;52.242;20.940;2023-05-07T00:19:55;8.80;;;4.03;;
33593;SDS011;19920;52.242;20.940;2023-05-07T00:22:21;5.22;;;3.67;;
33593;SDS011;19920;52.242;20.940;2023-05-07T00:24:46;4.80;;;3.42;;
33593;SDS011;19920;52.242;20.940;2023-05-07T00:27:12;5.45;;;3.85;;
33593;SDS011;19920;52.242;20.940;2023-05-07T00:29:38;6.95;;;3.85;;
33593;SDS011;19920;52.242;20.940;2023-05-07T00:32:03;5.82;;;3.83;;
33593;SDS011;19920;52.242;20.940;2023-05-07T00:34:30;5.63;;;3.80;;
33593;SDS011;19920;52.242;20.940;2023-05-07T00:36:55;6.35;;;3.80;;
33593;SDS011;19920;52.242;20.940;2023-05-07T00:39:21;6.63;;;3.55;;
33593;SDS011;19920;52.242;20.940;2023-05-07T00:41:46;5.90;;;4.57;;
33593;SDS011;19920;52.242;20.940;2023-05-07T00:44:12;10.48;;;4.80;;
33593;SDS011;19920;52.242;20.940;2023-05-07T00:46:39;8.73;;;4.38;;
33593;SDS011;19920;52.242;20.940;2023-05-07T00:49:05;6.25;;;4.13;;
33593;SDS011;19920;52.242;20.940;2023-05-07T00:51:31;5.68;;;3.28;;
33593;SDS011;19920;52.242;20.940;2023-05-07T00:53:59;5.07;;;3.58;;
33593;SDS011;19920;52.242;20.940;2023-05-07T00:56:26;6.35;;;3.83;;
33593;SDS011;19920;52.242;20.940;2023-05-07T00:58:52;6.53;;;4.03;;
33593;SDS011;19920;52.242;20.940;2023-05-07T01:01:17;6.00;;;3.80;;
33593;SDS011;19920;52.242;20.940;2023-05-07T01:03:43;5.68;;;3.45;;
33593;SDS011;19920;52.242;20.940;2023-05-07T01:06:09;6.65;;;3.15;;
33593;SDS011;19920;52.242;20.940;2023-05-07T01:08:37;3.80;;;2.83;;
33593;SDS011;19920;52.242;20.940;2023-05-07T01:11:04;4.93;;;3.35;;
33593;SDS011;19920;52.242;20.940;2023-05-07T01:13:35;5.78;;;3.60;;
33593;SDS011;19920;52.242;20.940;2023-05-07T01:16:01;7.05;;;3.10;;
33593;SDS011;19920;52.242;20.940;2023-05-07T01:18:28;5.28;;;3.47;;
33593;SDS011;19920;52.242;20.940;2023-05-07T01:20:55;4.80;;;3.17;;
33593;SDS011;19920;52.242;20.940;2023-05-07T01:23:23;6.35;;;3.90;;
33593;SDS011;19920;52.242;20.940;2023-05-07T01:25:53;5.10;;;3.15;;
33593;SDS011;19920;52.242;20.940;2023-05-07T01:28:19;4.68;;;3.10;;
33593;SDS011;19920;52.242;20.940;2023-05-07T01:30:46;3.47;;;2.78;;
33593;SDS011;19920;52.242;20.940;2023-05-07T01:33:17;4.88;;;2.67;;
33593;SDS011;19920;52.242;20.940;2023-05-07T01:35:45;4.07;;;2.85;;
33593;SDS011;19920;52.242;20.940;2023-05-07T01:38:15;5.47;;;2.90;;
33593;SDS011;19920;52.242;20.940;2023-05-07T01:40:43;4.65;;;2.92;;
33593;SDS011;19920;52.242;20.940;2023-05-07T01:43:08;4.18;;;2.70;;
33593;SDS011;19920;52.242;20.940;2023-05-07T01:45:35;4.95;;;3.00;;
33593;SDS011;19920;52.242;20.940;2023-05-07T01:48:05;4.72;;;2.97;;
33593;SDS011;19920;52.242;20.940;2023-05-07T01:50:32;5.80;;;3.20;;
33593;SDS011;19920;52.242;20.940;2023-05-07T01:52:58;4.57;;;3.10;;
33593;SDS011;19920;52.242;20.940;2023-05-07T01:55:24;6.07;;;3.10;;
33593;SDS011;19920;52.242;20.940;2023-05-07T01:57:50;5.40;;;3.38;;
33593;SDS011;19920;52.242;20.940;2023-05-07T02:00:15;6.38;;;3.28;;
33593;SDS011;19920;52.242;20.940;2023-05-07T02:02:42;6.45;;;2.83;;
33593;SDS011;19920;52.242;20.940;2023-05-07T02:05:08;5.75;;;3.30;;
33593;SDS011;19920;52.242;20.940;2023-05-07T02:07:34;4.53;;;3.65;;
33593;SDS011;19920;52.242;20.940;2023-05-07T02:09:59;5.20;;;3.55;;
33593;SDS011;19920;52.242;20.940;2023-05-07T02:12:25;5.45;;;3.83;;
33593;SDS011;19920;52.242;20.940;2023-05-07T02:14:50;4.47;;;3.10;;
33593;SDS011;19920;52.242;20.940;2023-05-07T02:17:16;4.30;;;3.42;;
33593;SDS011;19920;52.242;20.940;2023-05-07T02:19:42;7.20;;;3.50;;
33593;SDS011;19920;52.242;20.940;2023-05-07T02:22:09;4.25;;;3.38;;
33593;SDS011;19920;52.242;20.940;2023-05-07T02:24:34;4.68;;;3.45;;
33593;SDS011;19920;52.242;20.940;2023-05-07T02:27:00;4.32;;;3.28;;
33593;SDS011;19920;52.242;20.940;2023-05-07T02:29:26;3.70;;;3.13;;
33593;SDS011;19920;52.242;20.940;2023-05-07T02:31:52;3.63;;;2.97;;
33593;SDS011;19920;52.242;20.940;2023-05-07T02:34:18;5.03;;;2.72;;
33593;SDS011;19920;52.242;20.940;2023-05-07T02:36:44;3.70;;;2.83;;
33593;SDS011;19920;52.242;20.940;2023-05-07T02:39:12;4.35;;;3.00;;
33593;SDS011;19920;52.242;20.940;2023-05-07T02:41:38;5.15;;;2.70;;
33593;SDS011;19920;52.242;20.940;2023-05-07T02:44:04;3.90;;;2.60;;
33593;SDS011;19920;52.242;20.940;2023-05-07T02:46:29;3.60;;;2.65;;
33593;SDS011;19920;52.242;20.940;2023-05-07T02:48:55;3.72;;;2.63;;
33593;SDS011;19920;52.242;20.940;2023-05-07T02:51:21;5.60;;;2.72;;
33593;SDS011;19920;52.242;20.940;2023-05-07T02:53:47;3.28;;;2.55;;
33593;SDS011;19920;52.242;20.940;2023-05-07T02:56:13;3.78;;;2.50;;
33593;SDS011;19920;52.242;20.940;2023-05-07T02:58:39;4.15;;;2.47;;
33593;SDS011;19920;52.242;20.940;2023-05-07T03:01:05;3.72;;;2.80;;
33593;SDS011;19920;52.242;20.940;2023-05-07T03:03:31;3.88;;;2.75;;
33593;SDS011;19920;52.242;20.940;2023-05-07T03:05:57;3.33;;;2.70;;
33593;SDS011;19920;52.242;20.940;2023-05-07T03:08:22;3.70;;;2.50;;
33593;SDS011;19920;52.242;20.940;2023-05-07T03:10:49;6.18;;;2.80;;
33593;SDS011;19920;52.242;20.940;2023-05-07T03:13:14;4.60;;;2.47;;
33593;SDS011;19920;52.242;20.940;2023-05-07T03:15:40;3.63;;;2.40;;
33593;SDS011;19920;52.242;20.940;2023-05-07T03:18:06;4.07;;;2.85;;
33593;SDS011;19920;52.242;20.940;2023-05-07T03:20:31;4.22;;;2.55;;
33593;SDS011;19920;52.242;20.940;2023-05-07T03:22:57;3.55;;;2.47;;
33593;SDS011;19920;52.242;20.940;2023-05-07T03:25:23;4.00;;;2.45;;
33593;SDS011;19920;52.242;20.940;2023-05-07T03:27:48;4.53;;;2.50;;
33593;SDS011;19920;52.242;20.940;2023-05-07T03:30:14;3.75;;;2.80;;
33593;SDS011;19920;52.242;20.940;2023-05-07T03:32:40;5.72;;;2.45;;
33593;SDS011;19920;52.242;20.940;2023-05-07T03:35:05;4.05;;;2.45;;
33593;SDS011;19920;52.242;20.940;2023-05-07T03:37:32;4.43;;;2.78;;
33593;SDS011;19920;52.242;20.940;2023-05-07T03:39:57;4.25;;;2.92;;
33593;SDS011;19920;52.242;20.940;2023-05-07T03:42:23;4.55;;;2.42;;
33593;SDS011;19920;52.242;20.940;2023-05-07T03:44:49;3.22;;;2.38;;
33593;SDS011;19920;52.242;20.940;2023-05-07T03:47:14;3.53;;;2.53;;
33593;SDS011;19920;52.242;20.940;2023-05-07T03:49:40;3.50;;;2.60;;
33593;SDS011;19920;52.242;20.940;2023-05-07T03:52:06;6.55;;;2.47;;
33593;SDS011;19920;52.242;20.940;2023-05-07T03:54:31;5.50;;;2.80;;
33593;SDS011;19920;52.242;20.940;2023-05-07T03:56:57;3.80;;;2.50;;
33593;SDS011;19920;52.242;20.940;2023-05-07T03:59:23;3.70;;;2.53;;
33593;SDS011;19920;52.242;20.940;2023-05-07T04:01:48;4.22;;;2.40;;
33593;SDS011;19920;52.242;20.940;2023-05-07T04:04:14;4.93;;;2.80;;
33593;SDS011;19920;52.242;20.940;2023-05-07T04:06:40;3.42;;;2.30;;
33593;SDS011;19920;52.242;20.940;2023-05-07T04:09:06;4.10;;;2.55;;
33593;SDS011;19920;52.242;20.940;2023-05-07T04:11:32;3.15;;;2.47;;
33593;SDS011;19920;52.242;20.940;2023-05-07T04:13:58;3.45;;;2.35;;
33593;SDS011;19920;52.242;20.940;2023-05-07T04:16:23;2.92;;;2.40;;
33593;SDS011;19920;52.242;20.940;2023-05-07T04:18:49;2.83;;;2.08;;
33593;SDS011;19920;52.242;20.940;2023-05-07T04:21:15;2.92;;;2.17;;
33593;SDS011;19920;52.242;20.940;2023-05-07T04:23:41;4.03;;;2.85;;
33593;SDS011;19920;52.242;20.940;2023-05-07T04:26:07;3.40;;;2.58;;
33593;SDS011;19920;52.242;20.940;2023-05-07T04:28:33;4.25;;;2.72;;
33593;SDS011;19920;52.242;20.940;2023-05-07T04:30:59;3.63;;;2.63;;
33593;SDS011;19920;52.242;20.940;2023-05-07T04:33:25;4.43;;;2.53;;
33593;SDS011;19920;52.242;20.940;2023-05-07T04:35:51;4.07;;;2.80;;
33593;SDS011;19920;52.242;20.940;2023-05-07T04:38:16;3.08;;;2.70;;
33593;SDS011;19920;52.242;20.940;2023-05-07T04:40:43;4.53;;;2.63;;
33593;SDS011;19920;52.242;20.940;2023-05-07T04:43:09;4.82;;;2.55;;
33593;SDS011;19920;52.242;20.940;2023-05-07T04:45:35;3.60;;;2.67;;
33593;SDS011;19920;52.242;20.940;2023-05-07T04:48:01;3.63;;;2.60;;
33593;SDS011;19920;52.242;20.940;2023-05-07T04:50:27;4.18;;;2.70;;
33593;SDS011;19920;52.242;20.940;2023-05-07T04:52:53;3.47;;;2.50;;
33593;SDS011;19920;52.242;20.940;2023-05-07T04:55:18;6.22;;;2.95;;
33593;SDS011;19920;52.242;20.940;2023-05-07T04:57:44;4.55;;;2.78;;
33593;SDS011;19920;52.242;20.940;2023-05-07T05:00:10;3.45;;;2.20;;
33593;SDS011;19920;52.242;20.940;2023-05-07T05:02:39;3.58;;;2.90;;
33593;SDS011;19920;52.242;20.940;2023-05-07T05:05:05;3.13;;;2.35;;
33593;SDS011;19920;52.242;20.940;2023-05-07T05:07:32;3.42;;;1.90;;
33593;SDS011;19920;52.242;20.940;2023-05-07T05:09:57;4.40;;;2.45;;
33593;SDS011;19920;52.242;20.940;2023-05-07T05:12:23;4.35;;;2.45;;
33593;SDS011;19920;52.242;20.940;2023-05-07T05:14:49;4.35;;;2.05;;
33593;SDS011;19920;52.242;20.940;2023-05-07T05:17:14;4.15;;;2.60;;
33593;SDS011;19920;52.242;20.940;2023-05-07T05:19:40;4.78;;;2.20;;
33593;SDS011;19920;52.242;20.940;2023-05-07T05:22:06;3.53;;;2.30;;
33593;SDS011;19920;52.242;20.940;2023-05-07T05:24:31;3.15;;;2.35;;
33593;SDS011;19920;52.242;20.940;2023-05-07T05:26:57;3.50;;;2.45;;
33593;SDS011;19920;52.242;20.940;2023-05-07T05:29:24;5.15;;;2.47;;
33593;SDS011;19920;52.242;20.940;2023-05-07T05:31:50;3.72;;;2.00;;
33593;SDS011;19920;52.242;20.940;2023-05-07T05:34:16;4.38;;;2.30;;
33593;SDS011;19920;52.242;20.940;2023-05-07T05:36:42;3.13;;;1.98;;
33593;SDS011;19920;52.242;20.940;2023-05-07T05:39:08;2.58;;;2.05;;
33593;SDS011;19920;52.242;20.940;2023-05-07T05:41:34;5.32;;;2.22;;
33593;SDS011;19920;52.242;20.940;2023-05-07T05:43:59;4.40;;;2.03;;
33593;SDS011;19920;52.242;20.940;2023-05-07T05:46:25;3.30;;;2.15;;
33593;SDS011;19920;52.242;20.940;2023-05-07T05:48:51;2.22;;;1.90;;
33593;SDS011;19920;52.242;20.940;2023-05-07T05:51:16;4.30;;;2.08;;
33593;SDS011;19920;52.242;20.940;2023-05-07T05:53:42;2.20;;;1.80;;
33593;SDS011;19920;52.242;20.940;2023-05-07T05:56:07;3.97;;;2.17;;
33593;SDS011;19920;52.242;20.940;2023-05-07T05:58:33;4.53;;;2.53;;
33593;SDS011;19920;52.242;20.940;2023-05-07T06:00:59;2.50;;;1.70;;
33593;SDS011;19920;52.242;20.940;2023-05-07T06:03:27;2.63;;;1.98;;
33593;SDS011;19920;52.242;20.940;2023-05-07T06:05:53;2.88;;;1.73;;
33593;SDS011;19920;52.242;20.940;2023-05-07T06:08:18;2.13;;;1.58;;
33593;SDS011;19920;52.242;20.940;2023-05-07T06:10:44;3.15;;;1.90;;
33593;SDS011;19920;52.242;20.940;2023-05-07T06:13:10;2.30;;;1.67;;
33593;SDS011;19920;52.242;20.940;2023-05-07T06:15:36;2.78;;;1.80;;
33593;SDS011;19920;52.242;20.940;2023-05-07T06:18:02;3.80;;;1.70;;
33593;SDS011;19920;52.242;20.940;2023-05-07T06:20:27;3.63;;;2.08;;
33593;SDS011;19920;52.242;20.940;2023-05-07T06:22:53;2.78;;;1.80;;
33593;SDS011;19920;52.242;20.940;2023-05-07T06:25:18;3.25;;;1.73;;
33593;SDS011;19920;52.242;20.940;2023-05-07T06:27:44;1.63;;;1.50;;
33593;SDS011;19920;52.242;20.940;2023-05-07T06:30:10;3.22;;;1.77;;
33593;SDS011;19920;52.242;20.940;2023-05-07T06:32:36;3.97;;;1.58;;
33593;SDS011;19920;52.242;20.940;2023-05-07T06:35:02;1.70;;;1.50;;
33593;SDS011;19920;52.242;20.940;2023-05-07T06:37:28;3.00;;;1.60;;
33593;SDS011;19920;52.242;20.940;2023-05-07T06:39:53;4.45;;;2.03;;
33593;SDS011;19920;52.242;20.940;2023-05-07T06:42:19;3.25;;;1.83;;
33593;SDS011;19920;52.242;20.940;2023-05-07T06:44:45;3.25;;;1.88;;
33593;SDS011;19920;52.242;20.940;2023-05-07T06:47:10;1.98;;;1.40;;
33593;SDS011;19920;52.242;20.940;2023-05-07T06:49:36;2.45;;;1.60;;
33593;SDS011;19920;52.242;20.940;2023-05-07T06:52:01;2.35;;;1.58;;
33593;SDS011;19920;52.242;20.940;2023-05-07T06:54:27;3.97;;;2.05;;
33593;SDS011;19920;52.242;20.940;2023-05-07T06:56:53;5.60;;;1.80;;
33593;SDS011;19920;52.242;20.940;2023-05-07T06:59:19;3.00;;;2.30;;
33593;SDS011;19920;52.242;20.940;2023-05-07T07:01:44;2.58;;;2.05;;
33593;SDS011;19920;52.242;20.940;2023-05-07T07:04:10;2.58;;;1.73;;
33593;SDS011;19920;52.242;20.940;2023-05-07T07:06:36;2.75;;;1.80;;
33593;SDS011;19920;52.242;20.940;2023-05-07T07:09:01;2.38;;;1.60;;
33593;SDS011;19920;52.242;20.940;2023-05-07T07:11:27;2.25;;;1.60;;
33593;SDS011;19920;52.242;20.940;2023-05-07T07:13:52;3.33;;;1.80;;
33593;SDS011;19920;52.242;20.940;2023-05-07T07:16:19;3.00;;;2.00;;
33593;SDS011;19920;52.242;20.940;2023-05-07T07:18:46;4.45;;;1.70;;
33593;SDS011;19920;52.242;20.940;2023-05-07T07:21:11;3.25;;;1.50;;
33593;SDS011;19920;52.242;20.940;2023-05-07T07:23:37;3.85;;;1.63;;
33593;SDS011;19920;52.242;20.940;2023-05-07T07:26:03;3.13;;;2.13;;
33593;SDS011;19920;52.242;20.940;2023-05-07T07:28:28;3.47;;;2.08;;
33593;SDS011;19920;52.242;20.940;2023-05-07T07:30:54;3.17;;;1.63;;
33593;SDS011;19920;52.242;20.940;2023-05-07T07:33:20;2.58;;;1.80;;
33593;SDS011;19920;52.242;20.940;2023-05-07T07:35:45;1.63;;;1.52;;
33593;SDS011;19920;52.242;20.940;2023-05-07T07:38:11;2.25;;;1.50;;
33593;SDS011;19920;52.242;20.940;2023-05-07T07:40:36;2.47;;;1.52;;
33593;SDS011;19920;52.242;20.940;2023-05-07T07:43:02;3.22;;;1.67;;
33593;SDS011;19920;52.242;20.940;2023-05-07T07:45:28;3.15;;;1.75;;
33593;SDS011;19920;52.242;20.940;2023-05-07T07:47:54;2.88;;;1.70;;
33593;SDS011;19920;52.242;20.940;2023-05-07T07:50:20;2.45;;;1.60;;
33593;SDS011;19920;52.242;20.940;2023-05-07T07:52:45;3.65;;;1.80;;
33593;SDS011;19920;52.242;20.940;2023-05-07T07:55:11;2.65;;;1.80;;
33593;SDS011;19920;52.242;20.940;2023-05-07T07:57:37;2.35;;;1.42;;
33593;SDS011;19920;52.242;20.940;2023-05-07T08:00:03;3.08;;;1.65;;
33593;SDS011;19920;52.242;20.940;2023-05-07T08:02:29;2.50;;;1.85;;
33593;SDS011;19920;52.242;20.940;2023-05-07T08:04:55;2.95;;;1.50;;
33593;SDS011;19920;52.242;20.940;2023-05-07T08:07:21;2.70;;;1.92;;
33593;SDS011;19920;52.242;20.940;2023-05-07T08:09:47;3.17;;;2.00;;
33593;SDS011;19920;52.242;20.940;2023-05-07T08:12:13;3.15;;;1.58;;
33593;SDS011;19920;52.242;20.940;2023-05-07T08:14:39;2.35;;;1.75;;
33593;SDS011;19920;52.242;20.940;2023-05-07T08:17:06;4.22;;;1.80;;
33593;SDS011;19920;52.242;20.940;2023-05-07T08:19:31;2.00;;;1.52;;
33593;SDS011;19920;52.242;20.940;2023-05-07T08:21:57;2.67;;;1.85;;
33593;SDS011;19920;52.242;20.940;2023-05-07T08:24:23;3.13;;;1.60;;
33593;SDS011;19920;52.242;20.940;2023-05-07T08:26:48;4.00;;;1.90;;
33593;SDS011;19920;52.242;20.940;2023-05-07T08:29:14;1.90;;;1.52;;
33593;SDS011;19920;52.242;20.940;2023-05-07T08:31:40;3.17;;;1.58;;
33593;SDS011;19920;52.242;20.940;2023-05-07T08:34:06;4.32;;;1.83;;
33593;SDS011;19920;52.242;20.940;2023-05-07T08:36:31;4.65;;;1.67;;
33593;SDS011;19920;52.242;20.940;2023-05-07T08:38:57;3.33;;;1.55;;
33593;SDS011;19920;52.242;20.940;2023-05-07T08:41:24;2.58;;;1.58;;
33593;SDS011;19920;52.242;20.940;2023-05-07T08:43:50;2.63;;;1.35;;
33593;SDS011;19920;52.242;20.940;2023-05-07T08:46:22;2.25;;;1.60;;
33593;SDS011;19920;52.242;20.940;2023-05-07T08:48:48;2.50;;;1.60;;
33593;SDS011;19920;52.242;20.940;2023-05-07T08:51:18;2.15;;;1.40;;
33593;SDS011;19920;52.242;20.940;2023-05-07T08:53:46;4.43;;;1.50;;
33593;SDS011;19920;52.242;20.940;2023-05-07T08:56:15;4.50;;;1.67;;
33593;SDS011;19920;52.242;20.940;2023-05-07T08:58:42;1.52;;;1.40;;
33593;SDS011;19920;52.242;20.940;2023-05-07T09:01:09;3.17;;;1.55;;
33593;SDS011;19920;52.242;20.940;2023-05-07T09:03:38;1.70;;;1.40;;
33593;SDS011;19920;52.242;20.940;2023-05-07T09:06:05;2.38;;;1.40;;
33593;SDS011;19920;52.242;20.940;2023-05-07T09:08:32;3.13;;;1.48;;
33593;SDS011;19920;52.242;20.940;2023-05-07T09:10:58;4.75;;;1.30;;
33593;SDS011;19920;52.242;20.940;2023-05-07T09:13:23;2.47;;;1.17;;
33593;SDS011;19920;52.242;20.940;2023-05-07T09:15:49;3.28;;;1.30;;
33593;SDS011;19920;52.242;20.940;2023-05-07T09:18:15;1.98;;;1.30;;
33593;SDS011;19920;52.242;20.940;2023-05-07T09:20:41;1.77;;;1.20;;
33593;SDS011;19920;52.242;20.940;2023-05-07T09:23:07;3.13;;;1.45;;
33593;SDS011;19920;52.242;20.940;2023-05-07T09:25:34;3.97;;;1.42;;
33593;SDS011;19920;52.242;20.940;2023-05-07T09:28:01;2.83;;;1.20;;
33593;SDS011;19920;52.242;20.940;2023-05-07T09:30:29;2.45;;;1.27;;
33593;SDS011;19920;52.242;20.940;2023-05-07T09:32:57;2.40;;;1.25;;
33593;SDS011;19920;52.242;20.940;2023-05-07T09:35:24;1.90;;;1.20;;
33593;SDS011;19920;52.242;20.940;2023-05-07T09:37:55;1.52;;;1.25;;
33593;SDS011;19920;52.242;20.940;2023-05-07T09:40:22;1.85;;;1.42;;
33593;SDS011;19920;52.242;20.940;2023-05-07T09:42:48;2.97;;;1.30;;
33593;SDS011;19920;52.242;20.940;2023-05-07T09:45:15;3.65;;;1.40;;
33593;SDS011;19920;52.242;20.940;2023-05-07T09:47:46;4.47;;;1.30;;
33593;SDS011;19920;52.242;20.940;2023-05-07T09:50:14;3.35;;;1.40;;
33593;SDS011;19920;52.242;20.940;2023-05-07T09:52:41;3.90;;;1.13;;
33593;SDS011;19920;52.242;20.940;2023-05-07T09:55:08;3.03;;;1.33;;
33593;SDS011;19920;52.242;20.940;2023-05-07T09:57:35;2.20;;;1.15;;
33593;SDS011;19920;52.242;20.940;2023-05-07T10:00:02;2.08;;;1.33;;
33593;SDS011;19920;52.242;20.940;2023-05-07T10:02:32;1.80;;;1.17;;
33593;SDS011;19920;52.242;20.940;2023-05-07T10:05:00;3.42;;;1.30;;
33593;SDS011;19920;52.242;20.940;2023-05-07T10:07:27;3.50;;;1.40;;
33593;SDS011;19920;52.242;20.940;2023-05-07T10:09:53;4.95;;;1.38;;
33593;SDS011;19920;52.242;20.940;2023-05-07T10:12:19;2.28;;;1.20;;
33593;SDS011;19920;52.242;20.940;2023-05-07T10:14:46;2.50;;;1.30;;
33593;SDS011;19920;52.242;20.940;2023-05-07T10:17:13;0.90;;;0.80;;
33593;SDS011;19920;52.242;20.940;2023-05-07T10:19:42;1.50;;;1.20;;
33593;SDS011;19920;52.242;20.940;2023-05-07T10:22:09;1.95;;;1.17;;
33593;SDS011;19920;52.242;20.940;2023-05-07T10:24:36;1.85;;;1.20;;
33593;SDS011;19920;52.242;20.940;2023-05-07T10:27:04;3.90;;;1.10;;
33593;SDS011;19920;52.242;20.940;2023-05-07T10:34:41;2.45;;;1.30;;
33593;SDS011;19920;52.242;20.940;2023-05-07T10:39:36;3.38;;;1.17;;
33593;SDS011;19920;52.242;20.940;2023-05-07T10:42:12;1.48;;;1.02;;
33593;SDS011;19920;52.242;20.940;2023-05-07T10:44:39;1.45;;;1.05;;
33593;SDS011;19920;52.242;20.940;2023-05-07T10:54:42;1.80;;;1.20;;
33593;SDS011;19920;52.242;20.940;2023-05-07T10:59:57;1.30;;;1.00;;
33593;SDS011;19920;52.242;20.940;2023-05-07T11:02:22;1.60;;;0.93;;
33593;SDS011;19920;52.242;20.940;2023-05-07T11:07:53;3.05;;;1.38;;
33593;SDS011;19920;52.242;20.940;2023-05-07T11:10:20;2.67;;;1.20;;
33593;SDS011;19920;52.242;20.940;2023-05-07T11:12:46;2.40;;;1.20;;
33593;SDS011;19920;52.242;20.940;2023-05-07T11:15:13;2.55;;;1.10;;
33593;SDS011;19920;52.242;20.940;2023-05-07T11:17:57;5.22;;;1.20;;
33593;SDS011;19920;52.242;20.940;2023-05-07T11:26:08;1.30;;;0.80;;
33593;SDS011;19920;52.242;20.940;2023-05-07T11:28:38;1.65;;;1.08;;
33593;SDS011;19920;52.242;20.940;2023-05-07T11:31:06;1.98;;;1.10;;
33593;SDS011;19920;52.242;20.940;2023-05-07T11:33:32;1.35;;;1.00;;
33593;SDS011;19920;52.242;20.940;2023-05-07T11:35:59;2.25;;;0.90;;
33593;SDS011;19920;52.242;20.940;2023-05-07T11:38:25;3.53;;;1.10;;
33593;SDS011;19920;52.242;20.940;2023-05-07T11:40:52;1.15;;;0.90;;
33593;SDS011;19920;52.242;20.940;2023-05-07T11:43:18;3.80;;;1.05;;
33593;SDS011;19920;52.242;20.940;2023-05-07T11:45:44;1.42;;;1.10;;
33593;SDS011;19920;52.242;20.940;2023-05-07T11:48:11;1.20;;;0.98;;
33593;SDS011;19920;52.242;20.940;2023-05-07T11:50:51;2.88;;;1.13;;
33593;SDS011;19920;52.242;20.940;2023-05-07T11:53:17;5.25;;;1.10;;
33593;SDS011;19920;52.242;20.940;2023-05-07T11:55:46;1.98;;;1.10;;
33593;SDS011;19920;52.242;20.940;2023-05-07T11:58:12;2.80;;;1.10;;
33593;SDS011;19920;52.242;20.940;2023-05-07T12:00:51;2.25;;;1.00;;
33593;SDS011;19920;52.242;20.940;2023-05-07T12:03:18;3.17;;;1.15;;
33593;SDS011;19920;52.242;20.940;2023-05-07T12:05:45;1.85;;;0.95;;
33593;SDS011;19920;52.242;20.940;2023-05-07T12:08:20;1.73;;;1.05;;
33593;SDS011;19920;52.242;20.940;2023-05-07T12:10:48;2.53;;;1.17;;
33593;SDS011;19920;52.242;20.940;2023-05-07T12:15:41;2.20;;;1.15;;
33593;SDS011;19920;52.242;20.940;2023-05-07T12:18:07;1.75;;;0.88;;
33593;SDS011;19920;52.242;20.940;2023-05-07T12:20:34;2.45;;;0.80;;
33593;SDS011;19920;52.242;20.940;2023-05-07T12:23:01;2.05;;;0.88;;
33593;SDS011;19920;52.242;20.940;2023-05-07T12:25:45;6.93;;;0.98;;
33593;SDS011;19920;52.242;20.940;2023-05-07T12:28:17;2.70;;;0.90;;
33593;SDS011;19920;52.242;20.940;2023-05-07T12:30:44;2.15;;;0.80;;
33593;SDS011;19920;52.242;20.940;2023-05-07T12:33:11;1.50;;;0.90;;
33593;SDS011;19920;52.242;20.940;2023-05-07T12:35:41;3.25;;;1.00;;
33593;SDS011;19920;52.242;20.940;2023-05-07T12:38:09;2.78;;;0.90;;
33593;SDS011;19920;52.242;20.940;2023-05-07T12:43:06;1.48;;;1.10;;
33593;SDS011;19920;52.242;20.940;2023-05-07T12:45:36;2.72;;;1.40;;
33593;SDS011;19920;52.242;20.940;2023-05-07T12:48:03;2.35;;;1.02;;
33593;SDS011;19920;52.242;20.940;2023-05-07T12:50:32;3.50;;;1.30;;
33593;SDS011;19920;52.242;20.940;2023-05-07T12:52:58;2.23;;;0.90;;
33593;SDS011;19920;52.242;20.940;2023-05-07T12:55:25;1.25;;;0.95;;
33593;SDS011;19920;52.242;20.940;2023-05-07T12:57:51;0.98;;;0.73;;
33593;SDS011;19920;52.242;20.940;2023-05-07T13:00:32;2.63;;;0.93;;
33593;SDS011;19920;52.242;20.940;2023-05-07T13:02:58;2.55;;;0.80;;
33593;SDS011;19920;52.242;20.940;2023-05-07T13:05:24;5.30;;;0.90;;
33593;SDS011;19920;52.242;20.940;2023-05-07T13:07:53;2.45;;;1.00;;
33593;SDS011;19920;52.242;20.940;2023-05-07T13:10:22;1.08;;;0.90;;
33593;SDS011;19920;52.242;20.940;2023-05-07T13:12:48;2.58;;;1.25;;
33593;SDS011;19920;52.242;20.940;2023-05-07T13:15:14;2.08;;;0.95;;
33593;SDS011;19920;52.242;20.940;2023-05-07T13:17:40;2.50;;;0.88;;
33593;SDS011;19920;52.242;20.940;2023-05-07T13:20:05;1.40;;;0.73;;
33593;SDS011;19920;52.242;20.940;2023-05-07T13:22:33;2.05;;;0.90;;
33593;SDS011;19920;52.242;20.940;2023-05-07T13:24:58;1.58;;;0.90;;
33593;SDS011;19920;52.242;20.940;2023-05-07T13:27:24;7.03;;;1.23;;
33593;SDS011;19920;52.242;20.940;2023-05-07T13:29:51;2.17;;;1.00;;
33593;SDS011;19920;52.242;20.940;2023-05-07T13:32:16;2.78;;;1.10;;
33593;SDS011;19920;52.242;20.940;2023-05-07T13:34:42;1.48;;;1.10;;
33593;SDS011;19920;52.242;20.940;2023-05-07T13:37:08;3.17;;;0.90;;
33593;SDS011;19920;52.242;20.940;2023-05-07T13:39:33;1.77;;;0.90;;
33593;SDS011;19920;52.242;20.940;2023-05-07T13:41:59;2.08;;;0.98;;
33593;SDS011;19920;52.242;20.940;2023-05-07T13:44:25;1.80;;;0.98;;
33593;SDS011;19920;52.242;20.940;2023-05-07T13:46:51;1.40;;;0.90;;
33593;SDS011;19920;52.242;20.940;2023-05-07T13:49:16;2.28;;;0.90;;
33593;SDS011;19920;52.242;20.940;2023-05-07T13:51:42;4.20;;;0.90;;
33593;SDS011;19920;52.242;20.940;2023-05-07T13:54:08;2.55;;;0.90;;
33593;SDS011;19920;52.242;20.940;2023-05-07T13:56:33;1.00;;;0.70;;
33593;SDS011;19920;52.242;20.940;2023-05-07T13:58:59;3.60;;;1.02;;
33593;SDS011;19920;52.242;20.940;2023-05-07T14:01:25;5.13;;;0.85;;
33593;SDS011;19920;52.242;20.940;2023-05-07T14:03:50;2.47;;;0.90;;
33593;SDS011;19920;52.242;20.940;2023-05-07T14:06:16;1.02;;;0.70;;
33593;SDS011;19920;52.242;20.940;2023-05-07T14:08:41;4.22;;;0.77;;
33593;SDS011;19920;52.242;20.940;2023-05-07T14:11:07;1.60;;;0.80;;
33593;SDS011;19920;52.242;20.940;2023-05-07T14:13:33;3.05;;;0.70;;
33593;SDS011;19920;52.242;20.940;2023-05-07T14:15:59;4.50;;;0.90;;
33593;SDS011;19920;52.242;20.940;2023-05-07T14:18:25;1.83;;;1.10;;
33593;SDS011;19920;52.242;20.940;2023-05-07T14:20:51;1.33;;;1.00;;
33593;SDS011;19920;52.242;20.940;2023-05-07T14:23:17;3.33;;;1.15;;
33593;SDS011;19920;52.242;20.940;2023-05-07T14:25:44;2.15;;;0.90;;
33593;SDS011;19920;52.242;20.940;2023-05-07T14:28:12;3.33;;;0.80;;
33593;SDS011;19920;52.242;20.940;2023-05-07T14:30:38;2.88;;;1.00;;
33593;SDS011;19920;52.242;20.940;2023-05-07T14:33:04;2.40;;;0.90;;
33593;SDS011;19920;52.242;20.940;2023-05-07T14:35:29;2.60;;;0.82;;
33593;SDS011;19920;52.242;20.940;2023-05-07T14:37:55;2.80;;;0.90;;
33593;SDS011;19920;52.242;20.940;2023-05-07T14:40:21;3.35;;;1.00;;
33593;SDS011;19920;52.242;20.940;2023-05-07T14:42:46;7.63;;;1.13;;
33593;SDS011;19920;52.242;20.940;2023-05-07T14:45:12;3.05;;;1.00;;
33593;SDS011;19920;52.242;20.940;2023-05-07T14:47:38;1.30;;;0.90;;
33593;SDS011;19920;52.242;20.940;2023-05-07T14:50:03;2.25;;;1.00;;
33593;SDS011;19920;52.242;20.940;2023-05-07T14:52:29;2.92;;;1.13;;
33593;SDS011;19920;52.242;20.940;2023-05-07T14:54:55;2.47;;;0.80;;
33593;SDS011;19920;52.242;20.940;2023-05-07T14:57:20;3.42;;;1.00;;
33593;SDS011;19920;52.242;20.940;2023-05-07T14:59:46;3.03;;;1.00;;